sensor_id;sensor_type;location;lat;lon;timestamp;P1;durP1;ratioP1;P2;durP2;ratioP2
49828;SDS011;35723;51.194;5.112;2023-03-04T00:01:15;28.40;;;7.95;;
49828;SDS011;35723;51.194;5.112;2023-03-04T00:03:41;28.63;;;8.00;;
49828;SDS011;35723;51.194;5.112;2023-03-04T00:06:07;26.92;;;6.88;;
49828;SDS011;35723;51.194;5.112;2023-03-04T00:08:32;27.02;;;7.35;;
49828;SDS011;35723;51.194;5.112;2023-03-04T00:10:58;24.48;;;7.18;;
49828;SDS011;35723;51.194;5.112;2023-03-04T00:13:24;26.17;;;7.30;;
49828;SDS011;35723;51.194;5.112;2023-03-04T00:15:50;24.27;;;7.22;;
49828;SDS011;35723;51.194;5.112;2023-03-04T00:18:16;28.77;;;8.20;;
49828;SDS011;35723;51.194;5.112;2023-03-04T00:20:42;32.65;;;7.32;;
49828;SDS011;35723;51.194;5.112;2023-03-04T00:23:07;20.40;;;6.65;;
49828;SDS011;35723;51.194;5.112;2023-03-04T00:25:33;26.05;;;7.00;;
49828;SDS011;35723;51.194;5.112;2023-03-04T00:27:59;23.23;;;6.93;;
49828;SDS011;35723;51.194;5.112;2023-03-04T00:30:25;24.92;;;6.57;;
49828;SDS011;35723;51.194;5.112;2023-03-04T00:32:51;25.08;;;6.18;;
49828;SDS011;35723;51.194;5.112;2023-03-04T00:35:16;26.20;;;7.00;;
49828;SDS011;35723;51.194;5.112;2023-03-04T00:37:42;28.27;;;7.25;;
49828;SDS011;35723;51.194;5.112;2023-03-04T00:40:08;26.15;;;7.00;;
49828;SDS011;35723;51.194;5.112;2023-03-04T00:42:35;29.50;;;7.28;;
49828;SDS011;35723;51.194;5.112;2023-03-04T00:45:01;28.25;;;7.25;;
49828;SDS011;35723;51.194;5.112;2023-03-04T00:47:27;30.35;;;7.70;;
49828;SDS011;35723;51.194;5.112;2023-03-04T00:49:53;24.85;;;7.65;;
49828;SDS011;35723;51.194;5.112;2023-03-04T00:52:19;25.35;;;7.22;;
49828;SDS011;35723;51.194;5.112;2023-03-04T00:54:44;26.77;;;7.22;;
49828;SDS011;35723;51.194;5.112;2023-03-04T00:57:10;27.10;;;7.70;;
49828;SDS011;35723;51.194;5.112;2023-03-04T00:59:36;29.65;;;7.28;;
49828;SDS011;35723;51.194;5.112;2023-03-04T01:02:01;24.00;;;7.38;;
49828;SDS011;35723;51.194;5.112;2023-03-04T01:04:27;27.83;;;7.65;;
49828;SDS011;35723;51.194;5.112;2023-03-04T01:06:53;23.73;;;6.60;;
49828;SDS011;35723;51.194;5.112;2023-03-04T01:09:19;30.02;;;7.88;;
49828;SDS011;35723;51.194;5.112;2023-03-04T01:11:44;28.17;;;6.90;;
49828;SDS011;35723;51.194;5.112;2023-03-04T01:14:10;25.20;;;7.05;;
49828;SDS011;35723;51.194;5.112;2023-03-04T01:16:36;29.65;;;6.88;;
49828;SDS011;35723;51.194;5.112;2023-03-04T01:19:01;24.95;;;6.25;;
49828;SDS011;35723;51.194;5.112;2023-03-04T01:21:27;23.05;;;6.25;;
49828;SDS011;35723;51.194;5.112;2023-03-04T01:23:53;24.63;;;6.80;;
49828;SDS011;35723;51.194;5.112;2023-03-04T01:26:18;26.98;;;5.97;;
49828;SDS011;35723;51.194;5.112;2023-03-04T01:28:44;28.00;;;6.40;;
49828;SDS011;35723;51.194;5.112;2023-03-04T01:31:10;27.58;;;6.07;;
49828;SDS011;35723;51.194;5.112;2023-03-04T01:33:35;29.92;;;6.25;;
49828;SDS011;35723;51.194;5.112;2023-03-04T01:36:01;27.95;;;6.32;;
49828;SDS011;35723;51.194;5.112;2023-03-04T01:38:26;25.23;;;5.75;;
49828;SDS011;35723;51.194;5.112;2023-03-04T01:40:52;26.20;;;6.10;;
49828;SDS011;35723;51.194;5.112;2023-03-04T01:43:20;30.13;;;5.88;;
49828;SDS011;35723;51.194;5.112;2023-03-04T01:45:48;24.48;;;5.63;;
49828;SDS011;35723;51.194;5.112;2023-03-04T01:48:16;27.45;;;6.03;;
49828;SDS011;35723;51.194;5.112;2023-03-04T01:50:45;27.30;;;5.95;;
49828;SDS011;35723;51.194;5.112;2023-03-04T01:53:14;22.75;;;5.40;;
49828;SDS011;35723;51.194;5.112;2023-03-04T01:55:45;32.22;;;5.95;;
49828;SDS011;35723;51.194;5.112;2023-03-04T01:58:11;26.73;;;5.75;;
49828;SDS011;35723;51.194;5.112;2023-03-04T02:00:37;25.52;;;5.95;;
49828;SDS011;35723;51.194;5.112;2023-03-04T02:03:04;29.67;;;6.32;;
49828;SDS011;35723;51.194;5.112;2023-03-04T02:05:32;29.63;;;5.90;;
49828;SDS011;35723;51.194;5.112;2023-03-04T02:07:59;30.80;;;5.80;;
49828;SDS011;35723;51.194;5.112;2023-03-04T02:10:26;30.55;;;6.35;;
49828;SDS011;35723;51.194;5.112;2023-03-04T02:12:52;29.90;;;5.95;;
49828;SDS011;35723;51.194;5.112;2023-03-04T02:15:18;23.98;;;5.28;;
49828;SDS011;35723;51.194;5.112;2023-03-04T02:17:44;32.70;;;5.78;;
49828;SDS011;35723;51.194;5.112;2023-03-04T02:22:56;24.67;;;5.03;;
49828;SDS011;35723;51.194;5.112;2023-03-04T02:25:38;27.20;;;5.40;;
49828;SDS011;35723;51.194;5.112;2023-03-04T02:28:11;26.67;;;5.53;;
49828;SDS011;35723;51.194;5.112;2023-03-04T02:30:37;23.98;;;4.97;;
49828;SDS011;35723;51.194;5.112;2023-03-04T02:33:03;25.17;;;5.18;;
49828;SDS011;35723;51.194;5.112;2023-03-04T02:35:29;30.25;;;5.70;;
49828;SDS011;35723;51.194;5.112;2023-03-04T02:37:55;27.52;;;4.70;;
49828;SDS011;35723;51.194;5.112;2023-03-04T02:40:22;25.17;;;4.93;;
49828;SDS011;35723;51.194;5.112;2023-03-04T02:42:52;27.20;;;5.07;;
49828;SDS011;35723;51.194;5.112;2023-03-04T02:47:55;25.92;;;4.78;;
49828;SDS011;35723;51.194;5.112;2023-03-04T02:50:21;28.77;;;4.47;;
49828;SDS011;35723;51.194;5.112;2023-03-04T02:52:47;25.92;;;4.95;;
49828;SDS011;35723;51.194;5.112;2023-03-04T02:55:12;26.10;;;4.82;;
49828;SDS011;35723;51.194;5.112;2023-03-04T02:57:38;26.48;;;4.47;;
49828;SDS011;35723;51.194;5.112;2023-03-04T03:00:04;27.40;;;4.30;;
49828;SDS011;35723;51.194;5.112;2023-03-04T03:02:30;23.98;;;4.32;;
49828;SDS011;35723;51.194;5.112;2023-03-04T03:04:56;27.25;;;4.70;;
49828;SDS011;35723;51.194;5.112;2023-03-04T03:07:21;28.70;;;4.65;;
49828;SDS011;35723;51.194;5.112;2023-03-04T03:09:47;21.33;;;4.30;;
49828;SDS011;35723;51.194;5.112;2023-03-04T03:12:13;23.05;;;4.55;;
49828;SDS011;35723;51.194;5.112;2023-03-04T03:14:38;23.80;;;4.18;;
49828;SDS011;35723;51.194;5.112;2023-03-04T03:17:04;24.13;;;4.32;;
49828;SDS011;35723;51.194;5.112;2023-03-04T03:19:29;23.83;;;4.80;;
49828;SDS011;35723;51.194;5.112;2023-03-04T03:21:55;25.02;;;5.00;;
49828;SDS011;35723;51.194;5.112;2023-03-04T03:24:21;23.67;;;5.20;;
49828;SDS011;35723;51.194;5.112;2023-03-04T03:26:46;28.77;;;5.32;;
49828;SDS011;35723;51.194;5.112;2023-03-04T03:29:12;25.60;;;4.72;;
49828;SDS011;35723;51.194;5.112;2023-03-04T03:31:38;24.00;;;4.93;;
49828;SDS011;35723;51.194;5.112;2023-03-04T03:34:03;24.02;;;5.30;;
49828;SDS011;35723;51.194;5.112;2023-03-04T03:36:29;23.35;;;4.32;;
49828;SDS011;35723;51.194;5.112;2023-03-04T03:38:54;26.10;;;4.63;;
49828;SDS011;35723;51.194;5.112;2023-03-04T03:41:20;24.08;;;4.60;;
49828;SDS011;35723;51.194;5.112;2023-03-04T03:43:46;28.00;;;4.68;;
49828;SDS011;35723;51.194;5.112;2023-03-04T03:46:11;25.77;;;4.35;;
49828;SDS011;35723;51.194;5.112;2023-03-04T03:48:37;26.08;;;4.72;;
49828;SDS011;35723;51.194;5.112;2023-03-04T03:51:02;23.65;;;5.00;;
49828;SDS011;35723;51.194;5.112;2023-03-04T03:53:28;21.17;;;4.80;;
49828;SDS011;35723;51.194;5.112;2023-03-04T03:55:54;20.48;;;4.85;;
49828;SDS011;35723;51.194;5.112;2023-03-04T03:58:19;24.83;;;5.00;;
49828;SDS011;35723;51.194;5.112;2023-03-04T04:00:45;22.60;;;4.43;;
49828;SDS011;35723;51.194;5.112;2023-03-04T04:03:13;25.48;;;5.05;;
49828;SDS011;35723;51.194;5.112;2023-03-04T04:05:40;23.80;;;4.63;;
49828;SDS011;35723;51.194;5.112;2023-03-04T04:08:05;22.05;;;4.35;;
49828;SDS011;35723;51.194;5.112;2023-03-04T04:10:31;25.73;;;4.72;;
49828;SDS011;35723;51.194;5.112;2023-03-04T04:12:56;20.10;;;4.30;;
49828;SDS011;35723;51.194;5.112;2023-03-04T04:15:23;26.13;;;5.15;;
49828;SDS011;35723;51.194;5.112;2023-03-04T04:17:48;24.70;;;5.47;;
49828;SDS011;35723;51.194;5.112;2023-03-04T04:20:14;22.55;;;4.43;;
49828;SDS011;35723;51.194;5.112;2023-03-04T04:22:40;23.48;;;5.07;;
49828;SDS011;35723;51.194;5.112;2023-03-04T04:25:06;19.15;;;4.68;;
49828;SDS011;35723;51.194;5.112;2023-03-04T04:27:34;22.38;;;4.65;;
49828;SDS011;35723;51.194;5.112;2023-03-04T04:30:00;20.92;;;4.57;;
49828;SDS011;35723;51.194;5.112;2023-03-04T04:32:26;18.60;;;4.20;;
49828;SDS011;35723;51.194;5.112;2023-03-04T04:34:51;25.67;;;4.70;;
49828;SDS011;35723;51.194;5.112;2023-03-04T04:37:17;21.25;;;4.85;;
49828;SDS011;35723;51.194;5.112;2023-03-04T04:39:43;20.42;;;4.50;;
49828;SDS011;35723;51.194;5.112;2023-03-04T04:42:09;23.88;;;4.13;;
49828;SDS011;35723;51.194;5.112;2023-03-04T04:44:35;23.63;;;4.63;;
49828;SDS011;35723;51.194;5.112;2023-03-04T04:47:03;20.83;;;4.40;;
49828;SDS011;35723;51.194;5.112;2023-03-04T04:49:30;18.45;;;4.10;;
49828;SDS011;35723;51.194;5.112;2023-03-04T04:51:56;19.02;;;4.03;;
49828;SDS011;35723;51.194;5.112;2023-03-04T04:54:22;20.77;;;4.15;;
49828;SDS011;35723;51.194;5.112;2023-03-04T04:56:48;23.52;;;3.95;;
49828;SDS011;35723;51.194;5.112;2023-03-04T04:59:14;26.50;;;4.65;;
49828;SDS011;35723;51.194;5.112;2023-03-04T05:01:40;23.88;;;4.15;;
49828;SDS011;35723;51.194;5.112;2023-03-04T05:04:05;20.40;;;4.00;;
49828;SDS011;35723;51.194;5.112;2023-03-04T05:06:31;18.92;;;4.10;;
49828;SDS011;35723;51.194;5.112;2023-03-04T05:08:57;21.90;;;4.55;;
49828;SDS011;35723;51.194;5.112;2023-03-04T05:11:22;22.58;;;4.18;;
49828;SDS011;35723;51.194;5.112;2023-03-04T05:13:48;21.60;;;4.43;;
49828;SDS011;35723;51.194;5.112;2023-03-04T05:16:14;23.83;;;4.63;;
49828;SDS011;35723;51.194;5.112;2023-03-04T05:18:42;22.75;;;4.40;;
49828;SDS011;35723;51.194;5.112;2023-03-04T05:21:08;20.55;;;3.92;;
49828;SDS011;35723;51.194;5.112;2023-03-04T05:23:35;20.75;;;4.30;;
49828;SDS011;35723;51.194;5.112;2023-03-04T05:26:02;22.17;;;4.93;;
49828;SDS011;35723;51.194;5.112;2023-03-04T05:28:29;19.33;;;4.03;;
49828;SDS011;35723;51.194;5.112;2023-03-04T05:30:55;22.77;;;4.40;;
49828;SDS011;35723;51.194;5.112;2023-03-04T05:33:21;19.23;;;4.65;;
49828;SDS011;35723;51.194;5.112;2023-03-04T05:35:47;19.48;;;4.47;;
49828;SDS011;35723;51.194;5.112;2023-03-04T05:38:14;21.02;;;4.57;;
49828;SDS011;35723;51.194;5.112;2023-03-04T05:40:41;22.63;;;4.70;;
49828;SDS011;35723;51.194;5.112;2023-03-04T05:43:07;21.02;;;4.55;;
49828;SDS011;35723;51.194;5.112;2023-03-04T05:45:33;21.60;;;4.97;;
49828;SDS011;35723;51.194;5.112;2023-03-04T05:47:59;21.80;;;4.35;;
49828;SDS011;35723;51.194;5.112;2023-03-04T05:50:26;29.58;;;6.38;;
49828;SDS011;35723;51.194;5.112;2023-03-04T05:52:52;24.05;;;4.43;;
49828;SDS011;35723;51.194;5.112;2023-03-04T05:55:18;18.90;;;4.32;;
49828;SDS011;35723;51.194;5.112;2023-03-04T05:57:44;18.67;;;4.05;;
49828;SDS011;35723;51.194;5.112;2023-03-04T06:00:10;26.52;;;5.38;;
49828;SDS011;35723;51.194;5.112;2023-03-04T06:02:37;23.27;;;4.13;;
49828;SDS011;35723;51.194;5.112;2023-03-04T06:05:04;22.95;;;4.32;;
49828;SDS011;35723;51.194;5.112;2023-03-04T06:07:30;18.17;;;3.80;;
49828;SDS011;35723;51.194;5.112;2023-03-04T06:09:56;17.48;;;3.92;;
49828;SDS011;35723;51.194;5.112;2023-03-04T06:12:21;29.30;;;4.18;;
49828;SDS011;35723;51.194;5.112;2023-03-04T06:14:47;21.40;;;4.22;;
49828;SDS011;35723;51.194;5.112;2023-03-04T06:17:13;22.67;;;5.15;;
49828;SDS011;35723;51.194;5.112;2023-03-04T06:19:38;23.55;;;4.20;;
49828;SDS011;35723;51.194;5.112;2023-03-04T06:22:06;23.90;;;3.83;;
49828;SDS011;35723;51.194;5.112;2023-03-04T06:24:32;17.15;;;4.68;;
49828;SDS011;35723;51.194;5.112;2023-03-04T06:26:58;23.25;;;4.22;;
49828;SDS011;35723;51.194;5.112;2023-03-04T06:29:24;20.27;;;4.45;;
49828;SDS011;35723;51.194;5.112;2023-03-04T06:31:50;24.25;;;4.93;;
49828;SDS011;35723;51.194;5.112;2023-03-04T06:34:15;22.63;;;4.70;;
49828;SDS011;35723;51.194;5.112;2023-03-04T06:36:41;19.85;;;4.28;;
49828;SDS011;35723;51.194;5.112;2023-03-04T06:39:07;20.27;;;4.30;;
49828;SDS011;35723;51.194;5.112;2023-03-04T06:41:33;25.88;;;4.70;;
49828;SDS011;35723;51.194;5.112;2023-03-04T06:43:59;27.60;;;5.20;;
49828;SDS011;35723;51.194;5.112;2023-03-04T06:46:25;23.83;;;5.22;;
49828;SDS011;35723;51.194;5.112;2023-03-04T06:48:51;24.15;;;4.95;;
49828;SDS011;35723;51.194;5.112;2023-03-04T06:51:17;21.35;;;4.78;;
49828;SDS011;35723;51.194;5.112;2023-03-04T06:53:43;27.00;;;4.82;;
49828;SDS011;35723;51.194;5.112;2023-03-04T06:56:09;20.13;;;4.90;;
49828;SDS011;35723;51.194;5.112;2023-03-04T06:58:37;23.30;;;4.95;;
49828;SDS011;35723;51.194;5.112;2023-03-04T07:01:13;20.80;;;4.97;;
49828;SDS011;35723;51.194;5.112;2023-03-04T07:03:41;20.95;;;4.82;;
49828;SDS011;35723;51.194;5.112;2023-03-04T07:06:08;21.30;;;5.00;;
49828;SDS011;35723;51.194;5.112;2023-03-04T07:08:38;24.38;;;5.45;;
49828;SDS011;35723;51.194;5.112;2023-03-04T07:11:04;23.17;;;6.03;;
49828;SDS011;35723;51.194;5.112;2023-03-04T07:13:30;22.80;;;4.90;;
49828;SDS011;35723;51.194;5.112;2023-03-04T07:15:58;20.60;;;5.35;;
49828;SDS011;35723;51.194;5.112;2023-03-04T07:18:24;24.60;;;6.10;;
49828;SDS011;35723;51.194;5.112;2023-03-04T07:20:52;21.63;;;5.45;;
49828;SDS011;35723;51.194;5.112;2023-03-04T07:23:18;23.25;;;5.45;;
49828;SDS011;35723;51.194;5.112;2023-03-04T07:25:44;24.38;;;5.78;;
49828;SDS011;35723;51.194;5.112;2023-03-04T07:28:10;20.38;;;5.85;;
49828;SDS011;35723;51.194;5.112;2023-03-04T07:30:36;22.52;;;5.40;;
49828;SDS011;35723;51.194;5.112;2023-03-04T07:33:02;23.38;;;5.30;;
49828;SDS011;35723;51.194;5.112;2023-03-04T07:35:27;21.58;;;5.00;;
49828;SDS011;35723;51.194;5.112;2023-03-04T07:37:53;19.05;;;5.05;;
49828;SDS011;35723;51.194;5.112;2023-03-04T07:40:19;21.65;;;5.65;;
49828;SDS011;35723;51.194;5.112;2023-03-04T07:42:48;21.60;;;5.25;;
49828;SDS011;35723;51.194;5.112;2023-03-04T07:45:14;20.13;;;4.97;;
49828;SDS011;35723;51.194;5.112;2023-03-04T07:47:40;21.20;;;4.90;;
49828;SDS011;35723;51.194;5.112;2023-03-04T07:50:06;23.35;;;5.35;;
49828;SDS011;35723;51.194;5.112;2023-03-04T07:52:32;18.95;;;4.70;;
49828;SDS011;35723;51.194;5.112;2023-03-04T07:55:01;16.08;;;4.78;;
49828;SDS011;35723;51.194;5.112;2023-03-04T07:57:27;22.83;;;5.32;;
49828;SDS011;35723;51.194;5.112;2023-03-04T07:59:53;22.33;;;5.05;;
49828;SDS011;35723;51.194;5.112;2023-03-04T08:02:18;23.10;;;6.63;;
49828;SDS011;35723;51.194;5.112;2023-03-04T08:04:44;18.85;;;5.68;;
49828;SDS011;35723;51.194;5.112;2023-03-04T08:07:09;15.60;;;5.18;;
49828;SDS011;35723;51.194;5.112;2023-03-04T08:09:35;22.70;;;5.13;;
49828;SDS011;35723;51.194;5.112;2023-03-04T08:12:01;17.65;;;4.85;;
49828;SDS011;35723;51.194;5.112;2023-03-04T08:14:26;17.20;;;4.97;;
49828;SDS011;35723;51.194;5.112;2023-03-04T08:16:52;18.85;;;4.30;;
49828;SDS011;35723;51.194;5.112;2023-03-04T08:19:18;18.70;;;4.45;;
49828;SDS011;35723;51.194;5.112;2023-03-04T08:21:43;19.95;;;5.07;;
49828;SDS011;35723;51.194;5.112;2023-03-04T08:24:09;17.98;;;3.90;;
49828;SDS011;35723;51.194;5.112;2023-03-04T08:26:36;17.27;;;3.97;;
49828;SDS011;35723;51.194;5.112;2023-03-04T08:29:06;15.85;;;3.85;;
49828;SDS011;35723;51.194;5.112;2023-03-04T08:31:32;13.88;;;4.15;;
49828;SDS011;35723;51.194;5.112;2023-03-04T08:33:58;15.63;;;3.63;;
49828;SDS011;35723;51.194;5.112;2023-03-04T08:36:24;15.70;;;3.72;;
49828;SDS011;35723;51.194;5.112;2023-03-04T08:38:50;17.55;;;3.80;;
49828;SDS011;35723;51.194;5.112;2023-03-04T08:41:15;16.88;;;3.60;;
49828;SDS011;35723;51.194;5.112;2023-03-04T08:43:42;15.80;;;3.40;;
49828;SDS011;35723;51.194;5.112;2023-03-04T08:46:08;12.25;;;3.35;;
49828;SDS011;35723;51.194;5.112;2023-03-04T08:48:35;16.45;;;4.05;;
49828;SDS011;35723;51.194;5.112;2023-03-04T08:51:05;12.98;;;3.45;;
49828;SDS011;35723;51.194;5.112;2023-03-04T08:53:32;11.82;;;2.97;;
49828;SDS011;35723;51.194;5.112;2023-03-04T08:55:58;13.73;;;3.08;;
49828;SDS011;35723;51.194;5.112;2023-03-04T08:58:24;18.55;;;3.63;;
49828;SDS011;35723;51.194;5.112;2023-03-04T09:00:49;15.13;;;3.03;;
49828;SDS011;35723;51.194;5.112;2023-03-04T09:03:15;15.63;;;3.33;;
49828;SDS011;35723;51.194;5.112;2023-03-04T09:05:43;15.77;;;3.38;;
49828;SDS011;35723;51.194;5.112;2023-03-04T09:08:10;21.52;;;3.50;;
49828;SDS011;35723;51.194;5.112;2023-03-04T09:10:35;14.90;;;3.30;;
49828;SDS011;35723;51.194;5.112;2023-03-04T09:13:01;16.70;;;3.47;;
49828;SDS011;35723;51.194;5.112;2023-03-04T09:15:27;17.10;;;4.00;;
49828;SDS011;35723;51.194;5.112;2023-03-04T09:17:53;17.63;;;3.88;;
49828;SDS011;35723;51.194;5.112;2023-03-04T09:20:18;17.67;;;3.97;;
49828;SDS011;35723;51.194;5.112;2023-03-04T09:22:45;20.95;;;4.93;;
49828;SDS011;35723;51.194;5.112;2023-03-04T09:25:12;20.48;;;5.10;;
49828;SDS011;35723;51.194;5.112;2023-03-04T09:27:41;20.65;;;5.63;;
49828;SDS011;35723;51.194;5.112;2023-03-04T09:30:07;19.33;;;5.50;;
49828;SDS011;35723;51.194;5.112;2023-03-04T09:32:34;23.33;;;6.03;;
49828;SDS011;35723;51.194;5.112;2023-03-04T09:35:00;19.10;;;6.30;;
49828;SDS011;35723;51.194;5.112;2023-03-04T09:37:25;24.58;;;7.00;;
49828;SDS011;35723;51.194;5.112;2023-03-04T09:39:51;22.77;;;6.50;;
49828;SDS011;35723;51.194;5.112;2023-03-04T09:42:23;23.85;;;6.78;;
49828;SDS011;35723;51.194;5.112;2023-03-04T09:44:56;23.40;;;7.03;;
49828;SDS011;35723;51.194;5.112;2023-03-04T09:47:22;21.42;;;6.00;;
49828;SDS011;35723;51.194;5.112;2023-03-04T09:49:57;19.58;;;5.97;;
49828;SDS011;35723;51.194;5.112;2023-03-04T09:52:32;18.95;;;6.03;;
49828;SDS011;35723;51.194;5.112;2023-03-04T09:55:12;21.60;;;5.80;;
49828;SDS011;35723;51.194;5.112;2023-03-04T10:01:40;18.73;;;5.97;;
49828;SDS011;35723;51.194;5.112;2023-03-04T10:03:44;23.35;;;5.82;;
49828;SDS011;35723;51.194;5.112;2023-03-04T10:06:16;21.38;;;5.35;;
49828;SDS011;35723;51.194;5.112;2023-03-04T10:16:48;12.63;;;4.00;;
49828;SDS011;35723;51.194;5.112;2023-03-04T10:25:21;14.75;;;4.40;;
49828;SDS011;35723;51.194;5.112;2023-03-04T10:27:55;15.52;;;4.40;;
49828;SDS011;35723;51.194;5.112;2023-03-04T10:30:47;16.20;;;5.00;;
49828;SDS011;35723;51.194;5.112;2023-03-04T10:33:23;18.50;;;4.20;;
49828;SDS011;35723;51.194;5.112;2023-03-04T10:35:55;15.02;;;3.90;;
49828;SDS011;35723;51.194;5.112;2023-03-04T10:38:22;18.13;;;3.78;;
49828;SDS011;35723;51.194;5.112;2023-03-04T10:40:48;15.90;;;3.95;;
49828;SDS011;35723;51.194;5.112;2023-03-04T10:43:15;18.25;;;3.75;;
49828;SDS011;35723;51.194;5.112;2023-03-04T10:45:45;17.10;;;3.72;;
49828;SDS011;35723;51.194;5.112;2023-03-04T10:48:26;10.95;;;3.58;;
49828;SDS011;35723;51.194;5.112;2023-03-04T10:50:53;13.80;;;3.83;;
49828;SDS011;35723;51.194;5.112;2023-03-04T10:53:38;12.23;;;3.40;;
49828;SDS011;35723;51.194;5.112;2023-03-04T11:02:00;17.92;;;3.65;;
49828;SDS011;35723;51.194;5.112;2023-03-04T11:04:35;17.73;;;3.25;;
49828;SDS011;35723;51.194;5.112;2023-03-04T11:07:00;17.70;;;3.40;;
49828;SDS011;35723;51.194;5.112;2023-03-04T11:09:31;14.88;;;3.58;;
49828;SDS011;35723;51.194;5.112;2023-03-04T11:11:58;16.38;;;3.40;;
49828;SDS011;35723;51.194;5.112;2023-03-04T11:14:35;12.15;;;3.05;;
49828;SDS011;35723;51.194;5.112;2023-03-04T11:19:46;17.70;;;4.30;;
49828;SDS011;35723;51.194;5.112;2023-03-04T11:22:16;14.75;;;3.92;;
49828;SDS011;35723;51.194;5.112;2023-03-04T11:24:44;20.63;;;4.25;;
49828;SDS011;35723;51.194;5.112;2023-03-04T11:27:37;16.77;;;4.43;;
49828;SDS011;35723;51.194;5.112;2023-03-04T11:30:28;18.73;;;4.55;;
49828;SDS011;35723;51.194;5.112;2023-03-04T11:33:11;15.35;;;4.20;;
49828;SDS011;35723;51.194;5.112;2023-03-04T11:36:08;13.63;;;4.53;;
49828;SDS011;35723;51.194;5.112;2023-03-04T11:38:49;15.48;;;4.82;;
49828;SDS011;35723;51.194;5.112;2023-03-04T11:41:17;18.85;;;5.20;;
49828;SDS011;35723;51.194;5.112;2023-03-04T11:43:50;17.70;;;4.35;;
49828;SDS011;35723;51.194;5.112;2023-03-04T11:46:32;17.38;;;5.53;;
49828;SDS011;35723;51.194;5.112;2023-03-04T12:00:30;17.60;;;4.95;;
49828;SDS011;35723;51.194;5.112;2023-03-04T12:06:17;14.60;;;4.33;;
49828;SDS011;35723;51.194;5.112;2023-03-04T12:28:15;13.10;;;4.22;;
49828;SDS011;35723;51.194;5.112;2023-03-04T12:37:19;12.30;;;3.50;;
49828;SDS011;35723;51.194;5.112;2023-03-04T12:51:14;9.35;;;3.00;;
49828;SDS011;35723;51.194;5.112;2023-03-04T12:54:19;10.60;;;2.92;;
49828;SDS011;35723;51.194;5.112;2023-03-04T12:57:14;9.50;;;2.85;;
49828;SDS011;35723;51.194;5.112;2023-03-04T12:59:44;14.82;;;3.33;;
49828;SDS011;35723;51.194;5.112;2023-03-04T13:04:56;10.18;;;3.28;;
49828;SDS011;35723;51.194;5.112;2023-03-04T13:07:43;10.32;;;3.40;;
49828;SDS011;35723;51.194;5.112;2023-03-04T13:10:19;9.10;;;3.30;;
49828;SDS011;35723;51.194;5.112;2023-03-04T13:12:51;12.27;;;3.50;;
49828;SDS011;35723;51.194;5.112;2023-03-04T13:18:00;10.55;;;3.55;;
49828;SDS011;35723;51.194;5.112;2023-03-04T13:20:44;9.77;;;3.45;;
49828;SDS011;35723;51.194;5.112;2023-03-04T13:28:23;7.55;;;2.97;;
49828;SDS011;35723;51.194;5.112;2023-03-04T13:43:50;12.27;;;5.00;;
49828;SDS011;35723;51.194;5.112;2023-03-04T13:52:26;16.27;;;6.28;;
49828;SDS011;35723;51.194;5.112;2023-03-04T13:54:24;14.07;;;6.25;;
49828;SDS011;35723;51.194;5.112;2023-03-04T14:04:39;10.73;;;5.10;;
49828;SDS011;35723;51.194;5.112;2023-03-04T14:09:59;11.60;;;5.40;;
49828;SDS011;35723;51.194;5.112;2023-03-04T14:12:29;10.75;;;5.03;;
49828;SDS011;35723;51.194;5.112;2023-03-04T14:15:04;10.15;;;5.28;;
49828;SDS011;35723;51.194;5.112;2023-03-04T14:17:45;13.48;;;5.50;;
49828;SDS011;35723;51.194;5.112;2023-03-04T14:20:25;10.68;;;5.50;;
49828;SDS011;35723;51.194;5.112;2023-03-04T14:22:51;11.10;;;5.68;;
49828;SDS011;35723;51.194;5.112;2023-03-04T14:27:45;12.52;;;5.57;;
49828;SDS011;35723;51.194;5.112;2023-03-04T14:30:22;10.23;;;5.50;;
49828;SDS011;35723;51.194;5.112;2023-03-04T14:32:53;11.95;;;5.43;;
49828;SDS011;35723;51.194;5.112;2023-03-04T14:35:23;11.57;;;5.60;;
49828;SDS011;35723;51.194;5.112;2023-03-04T14:37:55;11.65;;;5.80;;
49828;SDS011;35723;51.194;5.112;2023-03-04T14:40:32;15.32;;;5.60;;
49828;SDS011;35723;51.194;5.112;2023-03-04T14:43:03;16.58;;;5.88;;
49828;SDS011;35723;51.194;5.112;2023-03-04T14:45:34;8.80;;;5.47;;
49828;SDS011;35723;51.194;5.112;2023-03-04T14:48:02;12.85;;;5.53;;
49828;SDS011;35723;51.194;5.112;2023-03-04T14:50:31;12.48;;;5.80;;
49828;SDS011;35723;51.194;5.112;2023-03-04T14:53:31;11.63;;;5.95;;
49828;SDS011;35723;51.194;5.112;2023-03-04T14:56:00;12.80;;;6.05;;
49828;SDS011;35723;51.194;5.112;2023-03-04T14:58:31;12.50;;;6.40;;
49828;SDS011;35723;51.194;5.112;2023-03-04T15:03:55;14.32;;;7.00;;
49828;SDS011;35723;51.194;5.112;2023-03-04T15:06:23;12.95;;;6.85;;
49828;SDS011;35723;51.194;5.112;2023-03-04T15:09:07;15.15;;;7.13;;
49828;SDS011;35723;51.194;5.112;2023-03-04T15:11:59;15.18;;;7.30;;
49828;SDS011;35723;51.194;5.112;2023-03-04T15:14:47;14.35;;;6.82;;
49828;SDS011;35723;51.194;5.112;2023-03-04T15:17:25;15.23;;;7.00;;
49828;SDS011;35723;51.194;5.112;2023-03-04T15:22:33;14.90;;;7.22;;
49828;SDS011;35723;51.194;5.112;2023-03-04T15:24:59;15.23;;;7.18;;
49828;SDS011;35723;51.194;5.112;2023-03-04T15:27:26;17.25;;;6.72;;
49828;SDS011;35723;51.194;5.112;2023-03-04T15:29:53;14.25;;;6.68;;
49828;SDS011;35723;51.194;5.112;2023-03-04T15:32:29;14.52;;;6.90;;
49828;SDS011;35723;51.194;5.112;2023-03-04T15:34:55;14.63;;;7.00;;
49828;SDS011;35723;51.194;5.112;2023-03-04T15:37:30;15.23;;;7.53;;
49828;SDS011;35723;51.194;5.112;2023-03-04T15:39:55;15.15;;;7.13;;
49828;SDS011;35723;51.194;5.112;2023-03-04T15:42:22;14.90;;;7.13;;
49828;SDS011;35723;51.194;5.112;2023-03-04T15:44:48;15.52;;;7.00;;
49828;SDS011;35723;51.194;5.112;2023-03-04T15:47:14;16.80;;;7.40;;
49828;SDS011;35723;51.194;5.112;2023-03-04T15:49:40;15.48;;;7.60;;
49828;SDS011;35723;51.194;5.112;2023-03-04T15:52:12;19.65;;;8.05;;
49828;SDS011;35723;51.194;5.112;2023-03-04T15:54:41;18.58;;;8.25;;
49828;SDS011;35723;51.194;5.112;2023-03-04T15:57:12;15.45;;;7.30;;
49828;SDS011;35723;51.194;5.112;2023-03-04T15:59:58;14.90;;;6.60;;
49828;SDS011;35723;51.194;5.112;2023-03-04T16:02:24;17.90;;;6.47;;
49828;SDS011;35723;51.194;5.112;2023-03-04T16:04:53;13.38;;;5.78;;
49828;SDS011;35723;51.194;5.112;2023-03-04T16:07:20;11.20;;;5.38;;
49828;SDS011;35723;51.194;5.112;2023-03-04T16:09:50;15.73;;;5.30;;
49828;SDS011;35723;51.194;5.112;2023-03-04T16:12:20;13.60;;;4.40;;
49828;SDS011;35723;51.194;5.112;2023-03-04T16:14:45;13.75;;;4.05;;
49828;SDS011;35723;51.194;5.112;2023-03-04T16:17:12;12.48;;;4.07;;
49828;SDS011;35723;51.194;5.112;2023-03-04T16:19:40;20.85;;;5.22;;
49828;SDS011;35723;51.194;5.112;2023-03-04T16:22:07;12.55;;;4.40;;
49828;SDS011;35723;51.194;5.112;2023-03-04T16:24:37;14.68;;;5.22;;
49828;SDS011;35723;51.194;5.112;2023-03-04T16:27:02;14.77;;;4.38;;
49828;SDS011;35723;51.194;5.112;2023-03-04T16:29:30;16.05;;;5.18;;
49828;SDS011;35723;51.194;5.112;2023-03-04T16:31:55;12.38;;;4.82;;
49828;SDS011;35723;51.194;5.112;2023-03-04T16:34:21;14.55;;;5.28;;
49828;SDS011;35723;51.194;5.112;2023-03-04T16:36:47;17.85;;;5.90;;
49828;SDS011;35723;51.194;5.112;2023-03-04T16:39:15;21.35;;;7.07;;
49828;SDS011;35723;51.194;5.112;2023-03-04T16:41:48;13.73;;;5.68;;
49828;SDS011;35723;51.194;5.112;2023-03-04T16:44:14;17.73;;;6.40;;
49828;SDS011;35723;51.194;5.112;2023-03-04T16:46:40;17.20;;;6.40;;
49828;SDS011;35723;51.194;5.112;2023-03-04T16:49:06;18.75;;;6.15;;
49828;SDS011;35723;51.194;5.112;2023-03-04T16:51:33;16.73;;;6.50;;
49828;SDS011;35723;51.194;5.112;2023-03-04T16:54:04;24.50;;;9.82;;